sensor_id;sensor_type;location;lat;lon;timestamp;P1;durP1;ratioP1;P2;durP2;ratioP2
10517;SDS011;5307;42.548;22.968;2023-06-10T00:00:40;9.73;;;4.75;;
10517;SDS011;5307;42.548;22.968;2023-06-10T00:03:07;5.63;;;4.70;;
10517;SDS011;5307;42.548;22.968;2023-06-10T00:05:34;8.05;;;4.88;;
10517;SDS011;5307;42.548;22.968;2023-06-10T00:08:04;5.07;;;4.57;;
10517;SDS011;5307;42.548;22.968;2023-06-10T00:10:34;7.95;;;5.13;;
10517;SDS011;5307;42.548;22.968;2023-06-10T00:13:01;8.77;;;4.63;;
10517;SDS011;5307;42.548;22.968;2023-06-10T00:15:29;8.52;;;4.88;;
10517;SDS011;5307;42.548;22.968;2023-06-10T00:17:55;6.47;;;4.70;;
10517;SDS011;5307;42.548;22.968;2023-06-10T00:20:22;8.00;;;4.82;;
10517;SDS011;5307;42.548;22.968;2023-06-10T00:22:50;6.10;;;5.10;;
10517;SDS011;5307;42.548;22.968;2023-06-10T00:25:17;6.53;;;4.50;;
10517;SDS011;5307;42.548;22.968;2023-06-10T00:27:45;7.55;;;5.35;;
10517;SDS011;5307;42.548;22.968;2023-06-10T00:30:12;12.10;;;4.63;;
10517;SDS011;5307;42.548;22.968;2023-06-10T00:32:39;6.18;;;4.30;;
10517;SDS011;5307;42.548;22.968;2023-06-10T00:35:09;8.27;;;4.90;;
10517;SDS011;5307;42.548;22.968;2023-06-10T00:37:35;6.03;;;4.80;;
10517;SDS011;5307;42.548;22.968;2023-06-10T00:40:03;6.45;;;4.97;;
10517;SDS011;5307;42.548;22.968;2023-06-10T00:42:31;5.60;;;4.72;;
10517;SDS011;5307;42.548;22.968;2023-06-10T00:44:59;9.40;;;4.70;;
10517;SDS011;5307;42.548;22.968;2023-06-10T00:47:26;9.80;;;5.10;;
10517;SDS011;5307;42.548;22.968;2023-06-10T00:49:53;5.32;;;4.45;;
10517;SDS011;5307;42.548;22.968;2023-06-10T00:52:21;7.25;;;4.65;;
10517;SDS011;5307;42.548;22.968;2023-06-10T00:54:50;6.25;;;4.88;;
10517;SDS011;5307;42.548;22.968;2023-06-10T00:57:17;9.73;;;4.75;;
10517;SDS011;5307;42.548;22.968;2023-06-10T00:59:46;5.75;;;5.15;;
10517;SDS011;5307;42.548;22.968;2023-06-10T01:02:16;6.60;;;5.20;;
10517;SDS011;5307;42.548;22.968;2023-06-10T01:04:43;7.25;;;5.63;;
10517;SDS011;5307;42.548;22.968;2023-06-10T01:07:18;6.65;;;5.63;;
10517;SDS011;5307;42.548;22.968;2023-06-10T01:09:54;6.97;;;5.28;;
10517;SDS011;5307;42.548;22.968;2023-06-10T01:12:26;6.28;;;5.47;;
10517;SDS011;5307;42.548;22.968;2023-06-10T01:14:59;11.75;;;4.90;;
10517;SDS011;5307;42.548;22.968;2023-06-10T01:17:30;6.10;;;4.97;;
10517;SDS011;5307;42.548;22.968;2023-06-10T01:19:56;7.43;;;5.75;;
10517;SDS011;5307;42.548;22.968;2023-06-10T01:22:25;7.72;;;5.93;;
10517;SDS011;5307;42.548;22.968;2023-06-10T01:24:54;5.80;;;4.93;;
10517;SDS011;5307;42.548;22.968;2023-06-10T01:27:23;6.68;;;5.30;;
10517;SDS011;5307;42.548;22.968;2023-06-10T01:29:58;7.13;;;5.60;;
10517;SDS011;5307;42.548;22.968;2023-06-10T01:32:32;9.52;;;5.28;;
10517;SDS011;5307;42.548;22.968;2023-06-10T01:35:03;11.23;;;6.22;;
10517;SDS011;5307;42.548;22.968;2023-06-10T01:37:34;7.50;;;5.90;;
10517;SDS011;5307;42.548;22.968;2023-06-10T01:40:02;8.20;;;6.10;;
10517;SDS011;5307;42.548;22.968;2023-06-10T01:42:31;6.72;;;6.05;;
10517;SDS011;5307;42.548;22.968;2023-06-10T01:44:58;9.77;;;5.70;;
10517;SDS011;5307;42.548;22.968;2023-06-10T01:47:25;10.60;;;5.80;;
10517;SDS011;5307;42.548;22.968;2023-06-10T01:49:52;8.35;;;5.75;;
10517;SDS011;5307;42.548;22.968;2023-06-10T01:52:19;8.27;;;6.43;;
10517;SDS011;5307;42.548;22.968;2023-06-10T01:54:47;7.78;;;6.32;;
10517;SDS011;5307;42.548;22.968;2023-06-10T01:57:14;7.10;;;5.55;;
10517;SDS011;5307;42.548;22.968;2023-06-10T01:59:41;10.57;;;6.40;;
10517;SDS011;5307;42.548;22.968;2023-06-10T02:02:09;9.13;;;5.47;;
10517;SDS011;5307;42.548;22.968;2023-06-10T02:04:36;8.32;;;5.45;;
10517;SDS011;5307;42.548;22.968;2023-06-10T02:07:03;10.50;;;5.85;;
10517;SDS011;5307;42.548;22.968;2023-06-10T02:09:31;7.18;;;5.70;;
10517;SDS011;5307;42.548;22.968;2023-06-10T02:12:01;10.88;;;6.30;;
10517;SDS011;5307;42.548;22.968;2023-06-10T02:14:28;9.63;;;5.88;;
10517;SDS011;5307;42.548;22.968;2023-06-10T02:16:55;10.18;;;5.78;;
10517;SDS011;5307;42.548;22.968;2023-06-10T02:19:22;9.52;;;6.35;;
10517;SDS011;5307;42.548;22.968;2023-06-10T02:21:50;10.80;;;5.95;;
10517;SDS011;5307;42.548;22.968;2023-06-10T02:24:17;10.93;;;5.93;;
10517;SDS011;5307;42.548;22.968;2023-06-10T02:26:43;13.80;;;6.40;;
10517;SDS011;5307;42.548;22.968;2023-06-10T02:29:14;6.95;;;6.10;;
10517;SDS011;5307;42.548;22.968;2023-06-10T02:31:41;10.20;;;6.25;;
10517;SDS011;5307;42.548;22.968;2023-06-10T02:34:07;8.23;;;6.40;;
10517;SDS011;5307;42.548;22.968;2023-06-10T02:36:34;9.88;;;5.68;;
10517;SDS011;5307;42.548;22.968;2023-06-10T02:39:02;15.35;;;7.53;;
10517;SDS011;5307;42.548;22.968;2023-06-10T02:41:29;8.73;;;6.30;;
10517;SDS011;5307;42.548;22.968;2023-06-10T02:43:56;9.45;;;6.40;;
10517;SDS011;5307;42.548;22.968;2023-06-10T02:46:24;9.80;;;6.53;;
10517;SDS011;5307;42.548;22.968;2023-06-10T02:48:51;9.75;;;6.68;;
10517;SDS011;5307;42.548;22.968;2023-06-10T02:51:18;9.10;;;6.43;;
10517;SDS011;5307;42.548;22.968;2023-06-10T02:53:45;8.05;;;6.38;;
10517;SDS011;5307;42.548;22.968;2023-06-10T02:56:13;9.48;;;6.57;;
10517;SDS011;5307;42.548;22.968;2023-06-10T02:58:42;7.78;;;6.28;;
10517;SDS011;5307;42.548;22.968;2023-06-10T03:01:08;9.70;;;6.80;;
10517;SDS011;5307;42.548;22.968;2023-06-10T03:03:37;8.73;;;6.18;;
10517;SDS011;5307;42.548;22.968;2023-06-10T03:06:06;11.52;;;6.30;;
10517;SDS011;5307;42.548;22.968;2023-06-10T03:08:33;7.72;;;6.68;;
10517;SDS011;5307;42.548;22.968;2023-06-10T03:11:00;10.98;;;6.63;;
10517;SDS011;5307;42.548;22.968;2023-06-10T03:13:27;9.75;;;6.97;;
10517;SDS011;5307;42.548;22.968;2023-06-10T03:15:55;7.57;;;6.78;;
10517;SDS011;5307;42.548;22.968;2023-06-10T03:18:25;7.55;;;6.45;;
10517;SDS011;5307;42.548;22.968;2023-06-10T03:20:55;9.52;;;6.90;;
10517;SDS011;5307;42.548;22.968;2023-06-10T03:23:22;8.07;;;6.88;;
10517;SDS011;5307;42.548;22.968;2023-06-10T03:25:49;9.18;;;6.95;;
10517;SDS011;5307;42.548;22.968;2023-06-10T03:28:16;11.07;;;7.00;;
10517;SDS011;5307;42.548;22.968;2023-06-10T03:30:43;21.75;;;7.38;;
10517;SDS011;5307;42.548;22.968;2023-06-10T03:33:10;14.40;;;7.53;;
10517;SDS011;5307;42.548;22.968;2023-06-10T03:35:37;10.88;;;7.60;;
10517;SDS011;5307;42.548;22.968;2023-06-10T03:38:05;12.07;;;8.30;;
10517;SDS011;5307;42.548;22.968;2023-06-10T03:40:32;12.65;;;7.47;;
10517;SDS011;5307;42.548;22.968;2023-06-10T03:42:59;13.63;;;7.57;;
10517;SDS011;5307;42.548;22.968;2023-06-10T03:45:26;12.70;;;6.80;;
10517;SDS011;5307;42.548;22.968;2023-06-10T03:47:54;9.40;;;6.78;;
10517;SDS011;5307;42.548;22.968;2023-06-10T03:50:21;12.05;;;6.55;;
10517;SDS011;5307;42.548;22.968;2023-06-10T03:52:49;11.07;;;6.88;;
10517;SDS011;5307;42.548;22.968;2023-06-10T03:55:17;11.18;;;6.88;;
10517;SDS011;5307;42.548;22.968;2023-06-10T03:57:46;10.82;;;6.90;;
10517;SDS011;5307;42.548;22.968;2023-06-10T04:00:14;9.90;;;7.22;;
10517;SDS011;5307;42.548;22.968;2023-06-10T04:02:42;10.88;;;6.40;;
10517;SDS011;5307;42.548;22.968;2023-06-10T04:05:13;7.07;;;6.22;;
10517;SDS011;5307;42.548;22.968;2023-06-10T04:07:40;8.10;;;6.43;;
10517;SDS011;5307;42.548;22.968;2023-06-10T04:10:12;8.82;;;6.97;;
10517;SDS011;5307;42.548;22.968;2023-06-10T04:12:40;15.50;;;7.07;;
10517;SDS011;5307;42.548;22.968;2023-06-10T04:15:07;7.57;;;6.65;;
10517;SDS011;5307;42.548;22.968;2023-06-10T04:17:35;10.73;;;6.43;;
10517;SDS011;5307;42.548;22.968;2023-06-10T04:20:02;8.15;;;6.72;;
10517;SDS011;5307;42.548;22.968;2023-06-10T04:22:32;10.98;;;6.47;;
10517;SDS011;5307;42.548;22.968;2023-06-10T04:24:59;13.80;;;6.80;;
10517;SDS011;5307;42.548;22.968;2023-06-10T04:27:26;10.52;;;6.78;;
10517;SDS011;5307;42.548;22.968;2023-06-10T04:29:54;8.23;;;6.40;;
10517;SDS011;5307;42.548;22.968;2023-06-10T04:32:21;13.30;;;6.70;;
10517;SDS011;5307;42.548;22.968;2023-06-10T04:34:48;9.77;;;7.05;;
10517;SDS011;5307;42.548;22.968;2023-06-10T04:37:15;11.45;;;7.20;;
10517;SDS011;5307;42.548;22.968;2023-06-10T04:39:42;7.65;;;6.85;;
10517;SDS011;5307;42.548;22.968;2023-06-10T04:42:08;9.50;;;6.97;;
10517;SDS011;5307;42.548;22.968;2023-06-10T04:44:35;12.68;;;6.93;;
10517;SDS011;5307;42.548;22.968;2023-06-10T04:47:04;9.98;;;7.25;;
10517;SDS011;5307;42.548;22.968;2023-06-10T04:49:32;9.70;;;6.60;;
10517;SDS011;5307;42.548;22.968;2023-06-10T04:51:59;12.77;;;7.35;;
10517;SDS011;5307;42.548;22.968;2023-06-10T04:54:26;9.30;;;7.85;;
10517;SDS011;5307;42.548;22.968;2023-06-10T04:56:53;13.13;;;9.05;;
10517;SDS011;5307;42.548;22.968;2023-06-10T04:59:20;15.18;;;10.40;;
10517;SDS011;5307;42.548;22.968;2023-06-10T05:01:47;16.25;;;11.05;;
10517;SDS011;5307;42.548;22.968;2023-06-10T05:04:15;16.55;;;11.45;;
10517;SDS011;5307;42.548;22.968;2023-06-10T05:06:42;18.65;;;12.45;;
10517;SDS011;5307;42.548;22.968;2023-06-10T05:09:09;17.67;;;11.73;;
10517;SDS011;5307;42.548;22.968;2023-06-10T05:14:23;16.48;;;11.10;;
10517;SDS011;5307;42.548;22.968;2023-06-10T05:16:49;14.68;;;9.77;;
10517;SDS011;5307;42.548;22.968;2023-06-10T05:19:18;20.85;;;9.68;;
10517;SDS011;5307;42.548;22.968;2023-06-10T05:21:44;15.48;;;10.55;;
10517;SDS011;5307;42.548;22.968;2023-06-10T05:24:11;17.00;;;9.15;;
10517;SDS011;5307;42.548;22.968;2023-06-10T05:26:38;13.68;;;9.48;;
10517;SDS011;5307;42.548;22.968;2023-06-10T05:29:06;11.00;;;8.43;;
10517;SDS011;5307;42.548;22.968;2023-06-10T05:31:34;14.27;;;8.13;;
10517;SDS011;5307;42.548;22.968;2023-06-10T05:34:00;14.95;;;9.40;;
10517;SDS011;5307;42.548;22.968;2023-06-10T05:36:29;10.13;;;8.25;;
10517;SDS011;5307;42.548;22.968;2023-06-10T05:38:55;12.60;;;8.55;;
10517;SDS011;5307;42.548;22.968;2023-06-10T05:41:22;11.45;;;8.85;;
10517;SDS011;5307;42.548;22.968;2023-06-10T05:43:50;10.15;;;8.50;;
10517;SDS011;5307;42.548;22.968;2023-06-10T05:46:17;12.25;;;7.88;;
10517;SDS011;5307;42.548;22.968;2023-06-10T05:48:44;13.43;;;8.52;;
10517;SDS011;5307;42.548;22.968;2023-06-10T05:51:11;11.95;;;8.63;;
10517;SDS011;5307;42.548;22.968;2023-06-10T05:53:39;13.52;;;8.75;;
10517;SDS011;5307;42.548;22.968;2023-06-10T05:56:05;14.45;;;9.30;;
10517;SDS011;5307;42.548;22.968;2023-06-10T05:58:33;11.35;;;7.95;;
10517;SDS011;5307;42.548;22.968;2023-06-10T06:00:59;10.13;;;8.70;;
10517;SDS011;5307;42.548;22.968;2023-06-10T06:03:26;11.50;;;8.55;;
10517;SDS011;5307;42.548;22.968;2023-06-10T06:05:53;16.02;;;8.70;;
10517;SDS011;5307;42.548;22.968;2023-06-10T06:08:20;9.65;;;8.23;;
10517;SDS011;5307;42.548;22.968;2023-06-10T06:10:49;12.82;;;9.25;;
10517;SDS011;5307;42.548;22.968;2023-06-10T06:13:16;9.48;;;8.57;;
10517;SDS011;5307;42.548;22.968;2023-06-10T06:15:43;14.68;;;8.75;;
10517;SDS011;5307;42.548;22.968;2023-06-10T06:18:10;12.70;;;8.63;;
10517;SDS011;5307;42.548;22.968;2023-06-10T06:20:37;10.10;;;8.85;;
10517;SDS011;5307;42.548;22.968;2023-06-10T06:23:03;12.05;;;7.90;;
10517;SDS011;5307;42.548;22.968;2023-06-10T06:25:30;11.75;;;8.00;;
10517;SDS011;5307;42.548;22.968;2023-06-10T06:27:58;11.48;;;7.95;;
10517;SDS011;5307;42.548;22.968;2023-06-10T06:30:25;14.40;;;8.13;;
10517;SDS011;5307;42.548;22.968;2023-06-10T06:32:52;15.10;;;8.10;;
10517;SDS011;5307;42.548;22.968;2023-06-10T06:35:19;11.23;;;7.88;;
10517;SDS011;5307;42.548;22.968;2023-06-10T06:37:48;10.85;;;7.45;;
10517;SDS011;5307;42.548;22.968;2023-06-10T06:40:16;10.88;;;8.02;;
10517;SDS011;5307;42.548;22.968;2023-06-10T06:42:42;12.05;;;7.88;;
10517;SDS011;5307;42.548;22.968;2023-06-10T06:45:11;13.55;;;8.07;;
10517;SDS011;5307;42.548;22.968;2023-06-10T06:47:38;13.80;;;8.10;;
10517;SDS011;5307;42.548;22.968;2023-06-10T06:50:05;8.48;;;7.20;;
10517;SDS011;5307;42.548;22.968;2023-06-10T06:52:32;9.23;;;7.35;;
10517;SDS011;5307;42.548;22.968;2023-06-10T06:54:59;7.75;;;6.47;;
10517;SDS011;5307;42.548;22.968;2023-06-10T06:57:25;7.35;;;6.40;;
10517;SDS011;5307;42.548;22.968;2023-06-10T06:59:52;9.32;;;6.40;;
10517;SDS011;5307;42.548;22.968;2023-06-10T07:02:20;10.35;;;6.45;;
10517;SDS011;5307;42.548;22.968;2023-06-10T07:04:47;12.38;;;6.38;;
10517;SDS011;5307;42.548;22.968;2023-06-10T07:07:15;10.65;;;7.10;;
10517;SDS011;5307;42.548;22.968;2023-06-10T07:09:42;13.45;;;6.90;;
10517;SDS011;5307;42.548;22.968;2023-06-10T07:12:09;9.43;;;6.43;;
10517;SDS011;5307;42.548;22.968;2023-06-10T07:14:37;12.00;;;6.95;;
10517;SDS011;5307;42.548;22.968;2023-06-10T07:20:01;14.73;;;5.68;;
10517;SDS011;5307;42.548;22.968;2023-06-10T07:22:28;9.80;;;6.50;;
10517;SDS011;5307;42.548;22.968;2023-06-10T07:24:55;15.45;;;7.38;;
10517;SDS011;5307;42.548;22.968;2023-06-10T07:27:21;12.65;;;6.03;;
10517;SDS011;5307;42.548;22.968;2023-06-10T07:29:48;9.70;;;5.60;;
10517;SDS011;5307;42.548;22.968;2023-06-10T07:32:15;9.52;;;5.32;;
10517;SDS011;5307;42.548;22.968;2023-06-10T07:34:42;6.30;;;4.78;;
10517;SDS011;5307;42.548;22.968;2023-06-10T07:37:10;7.25;;;4.85;;
10517;SDS011;5307;42.548;22.968;2023-06-10T07:39:37;6.90;;;5.10;;
10517;SDS011;5307;42.548;22.968;2023-06-10T07:42:04;7.20;;;4.43;;
10517;SDS011;5307;42.548;22.968;2023-06-10T07:44:31;8.60;;;4.75;;
10517;SDS011;5307;42.548;22.968;2023-06-10T07:46:58;13.27;;;5.50;;
10517;SDS011;5307;42.548;22.968;2023-06-10T08:02:40;5.88;;;4.35;;
10517;SDS011;5307;42.548;22.968;2023-06-10T08:05:07;7.32;;;4.57;;
10517;SDS011;5307;42.548;22.968;2023-06-10T08:07:35;8.13;;;3.50;;
10517;SDS011;5307;42.548;22.968;2023-06-10T08:10:02;4.43;;;3.60;;
10517;SDS011;5307;42.548;22.968;2023-06-10T08:12:30;5.45;;;4.43;;
10517;SDS011;5307;42.548;22.968;2023-06-10T08:14:57;8.88;;;4.70;;
10517;SDS011;5307;42.548;22.968;2023-06-10T08:17:24;5.57;;;4.10;;
10517;SDS011;5307;42.548;22.968;2023-06-10T08:19:52;5.07;;;4.00;;
10517;SDS011;5307;42.548;22.968;2023-06-10T08:22:19;7.18;;;4.25;;
10517;SDS011;5307;42.548;22.968;2023-06-10T08:24:46;10.63;;;4.80;;
10517;SDS011;5307;42.548;22.968;2023-06-10T08:27:13;8.02;;;5.20;;
10517;SDS011;5307;42.548;22.968;2023-06-10T08:29:40;4.72;;;3.67;;
10517;SDS011;5307;42.548;22.968;2023-06-10T08:32:07;6.03;;;3.77;;
10517;SDS011;5307;42.548;22.968;2023-06-10T08:34:34;4.60;;;3.50;;
10517;SDS011;5307;42.548;22.968;2023-06-10T08:37:03;7.10;;;3.92;;
10517;SDS011;5307;42.548;22.968;2023-06-10T08:39:30;5.07;;;3.53;;
10517;SDS011;5307;42.548;22.968;2023-06-10T08:42:00;4.00;;;3.60;;
10517;SDS011;5307;42.548;22.968;2023-06-10T08:44:37;6.43;;;3.60;;
10517;SDS011;5307;42.548;22.968;2023-06-10T08:47:06;5.13;;;3.80;;
10517;SDS011;5307;42.548;22.968;2023-06-10T08:49:35;6.25;;;3.30;;
10517;SDS011;5307;42.548;22.968;2023-06-10T08:52:08;6.65;;;3.58;;
10517;SDS011;5307;42.548;22.968;2023-06-10T08:54:37;4.88;;;4.13;;
10517;SDS011;5307;42.548;22.968;2023-06-10T08:57:05;5.25;;;3.78;;
10517;SDS011;5307;42.548;22.968;2023-06-10T08:59:32;15.85;;;9.20;;
10517;SDS011;5307;42.548;22.968;2023-06-10T09:01:59;16.10;;;9.65;;
10517;SDS011;5307;42.548;22.968;2023-06-10T09:04:28;9.50;;;5.78;;
10517;SDS011;5307;42.548;22.968;2023-06-10T09:06:55;4.78;;;2.85;;
10517;SDS011;5307;42.548;22.968;2023-06-10T09:09:24;3.58;;;3.25;;
10517;SDS011;5307;42.548;22.968;2023-06-10T09:11:55;3.90;;;3.47;;
10517;SDS011;5307;42.548;22.968;2023-06-10T09:14:22;4.22;;;3.13;;
10517;SDS011;5307;42.548;22.968;2023-06-10T09:16:49;8.20;;;4.63;;
10517;SDS011;5307;42.548;22.968;2023-06-10T09:19:16;10.18;;;6.32;;
10517;SDS011;5307;42.548;22.968;2023-06-10T09:21:43;9.35;;;6.18;;
10517;SDS011;5307;42.548;22.968;2023-06-10T09:24:10;13.75;;;6.35;;
10517;SDS011;5307;42.548;22.968;2023-06-10T09:26:38;4.00;;;3.35;;
10517;SDS011;5307;42.548;22.968;2023-06-10T09:29:05;6.40;;;3.55;;
10517;SDS011;5307;42.548;22.968;2023-06-10T09:31:34;5.20;;;3.38;;
10517;SDS011;5307;42.548;22.968;2023-06-10T09:34:06;7.75;;;5.82;;
10517;SDS011;5307;42.548;22.968;2023-06-10T09:36:33;4.63;;;3.95;;
10517;SDS011;5307;42.548;22.968;2023-06-10T09:39:00;9.10;;;3.88;;
10517;SDS011;5307;42.548;22.968;2023-06-10T09:41:31;4.53;;;3.40;;
10517;SDS011;5307;42.548;22.968;2023-06-10T09:44:00;5.85;;;3.60;;
10517;SDS011;5307;42.548;22.968;2023-06-10T09:46:30;4.65;;;4.10;;
10517;SDS011;5307;42.548;22.968;2023-06-10T09:48:59;3.83;;;3.42;;
10517;SDS011;5307;42.548;22.968;2023-06-10T09:51:25;6.80;;;3.55;;
10517;SDS011;5307;42.548;22.968;2023-06-10T09:53:52;4.90;;;3.35;;
10517;SDS011;5307;42.548;22.968;2023-06-10T09:56:20;5.00;;;3.70;;
10517;SDS011;5307;42.548;22.968;2023-06-10T09:58:49;8.27;;;5.47;;
10517;SDS011;5307;42.548;22.968;2023-06-10T10:01:21;4.22;;;3.83;;
10517;SDS011;5307;42.548;22.968;2023-06-10T10:03:49;4.72;;;3.75;;
10517;SDS011;5307;42.548;22.968;2023-06-10T10:06:17;4.00;;;3.60;;
10517;SDS011;5307;42.548;22.968;2023-06-10T10:08:45;3.97;;;3.53;;
10517;SDS011;5307;42.548;22.968;2023-06-10T10:11:13;4.55;;;3.10;;
10517;SDS011;5307;42.548;22.968;2023-06-10T10:13:42;5.63;;;3.70;;
10517;SDS011;5307;42.548;22.968;2023-06-10T10:16:11;7.28;;;4.70;;
10517;SDS011;5307;42.548;22.968;2023-06-10T10:18:43;8.65;;;5.10;;
10517;SDS011;5307;42.548;22.968;2023-06-10T10:21:14;4.43;;;3.60;;
10517;SDS011;5307;42.548;22.968;2023-06-10T10:23:44;3.70;;;3.30;;
10517;SDS011;5307;42.548;22.968;2023-06-10T10:26:19;5.00;;;3.63;;
10517;SDS011;5307;42.548;22.968;2023-06-10T10:28:49;5.07;;;4.10;;
10517;SDS011;5307;42.548;22.968;2023-06-10T10:31:25;5.20;;;3.88;;
10517;SDS011;5307;42.548;22.968;2023-06-10T10:33:59;8.77;;;3.95;;
10517;SDS011;5307;42.548;22.968;2023-06-10T10:36:27;4.32;;;3.58;;
10517;SDS011;5307;42.548;22.968;2023-06-10T10:38:54;3.72;;;3.40;;
10517;SDS011;5307;42.548;22.968;2023-06-10T10:41:27;4.07;;;3.45;;
10517;SDS011;5307;42.548;22.968;2023-06-10T10:43:56;4.85;;;3.25;;
10517;SDS011;5307;42.548;22.968;2023-06-10T10:46:23;5.90;;;4.00;;
10517;SDS011;5307;42.548;22.968;2023-06-10T10:48:51;4.53;;;3.72;;
10517;SDS011;5307;42.548;22.968;2023-06-10T10:51:22;5.10;;;3.90;;
10517;SDS011;5307;42.548;22.968;2023-06-10T11:02:36;7.78;;;3.97;;
10517;SDS011;5307;42.548;22.968;2023-06-10T11:05:08;7.15;;;4.05;;
10517;SDS011;5307;42.548;22.968;2023-06-10T11:07:37;4.80;;;3.78;;
10517;SDS011;5307;42.548;22.968;2023-06-10T11:10:08;5.18;;;3.75;;
10517;SDS011;5307;42.548;22.968;2023-06-10T11:12:42;8.27;;;4.00;;
10517;SDS011;5307;42.548;22.968;2023-06-10T11:15:19;5.80;;;3.75;;
10517;SDS011;5307;42.548;22.968;2023-06-10T11:20:45;6.57;;;4.10;;
10517;SDS011;5307;42.548;22.968;2023-06-10T11:26:12;4.25;;;3.85;;
10517;SDS011;5307;42.548;22.968;2023-06-10T11:31:46;7.82;;;4.60;;
10517;SDS011;5307;42.548;22.968;2023-06-10T11:34:23;5.00;;;3.78;;
10517;SDS011;5307;42.548;22.968;2023-06-10T11:36:52;7.85;;;4.18;;
10517;SDS011;5307;42.548;22.968;2023-06-10T11:39:21;8.05;;;3.95;;
10517;SDS011;5307;42.548;22.968;2023-06-10T11:44:47;6.47;;;4.25;;
10517;SDS011;5307;42.548;22.968;2023-06-10T11:47:14;5.30;;;4.20;;
10517;SDS011;5307;42.548;22.968;2023-06-10T11:49:41;5.20;;;4.00;;
10517;SDS011;5307;42.548;22.968;2023-06-10T11:52:08;4.40;;;4.00;;
10517;SDS011;5307;42.548;22.968;2023-06-10T11:54:40;9.05;;;5.00;;
10517;SDS011;5307;42.548;22.968;2023-06-10T11:57:07;5.07;;;3.70;;
10517;SDS011;5307;42.548;22.968;2023-06-10T11:59:35;6.20;;;4.30;;
10517;SDS011;5307;42.548;22.968;2023-06-10T12:02:02;4.15;;;3.75;;
10517;SDS011;5307;42.548;22.968;2023-06-10T12:04:28;5.55;;;4.75;;
10517;SDS011;5307;42.548;22.968;2023-06-10T12:06:55;4.40;;;4.00;;
10517;SDS011;5307;42.548;22.968;2023-06-10T12:09:23;5.00;;;4.50;;
10517;SDS011;5307;42.548;22.968;2023-06-10T12:11:52;5.28;;;3.67;;
10517;SDS011;5307;42.548;22.968;2023-06-10T12:17:20;4.28;;;3.88;;
10517;SDS011;5307;42.548;22.968;2023-06-10T12:19:48;6.65;;;3.92;;
10517;SDS011;5307;42.548;22.968;2023-06-10T12:22:15;6.38;;;4.03;;
10517;SDS011;5307;42.548;22.968;2023-06-10T12:24:44;10.32;;;4.13;;
10517;SDS011;5307;42.548;22.968;2023-06-10T12:27:13;11.85;;;4.05;;
10517;SDS011;5307;42.548;22.968;2023-06-10T12:29:40;8.10;;;3.70;;
10517;SDS011;5307;42.548;22.968;2023-06-10T12:32:18;6.70;;;4.05;;
10517;SDS011;5307;42.548;22.968;2023-06-10T12:34:47;6.55;;;4.03;;
10517;SDS011;5307;42.548;22.968;2023-06-10T12:37:16;4.30;;;3.90;;
10517;SDS011;5307;42.548;22.968;2023-06-10T12:39:43;18.13;;;4.80;;
10517;SDS011;5307;42.548;22.968;2023-06-10T12:42:22;9.50;;;3.97;;
10517;SDS011;5307;42.548;22.968;2023-06-10T12:44:53;11.48;;;4.05;;
10517;SDS011;5307;42.548;22.968;2023-06-10T12:47:20;15.90;;;4.13;;
10517;SDS011;5307;42.548;22.968;2023-06-10T12:49:56;4.20;;;3.72;;
10517;SDS011;5307;42.548;22.968;2023-06-10T12:52:23;4.82;;;4.18;;
10517;SDS011;5307;42.548;22.968;2023-06-10T12:54:50;4.57;;;3.70;;
10517;SDS011;5307;42.548;22.968;2023-06-10T12:57:17;6.95;;;4.00;;
10517;SDS011;5307;42.548;22.968;2023-06-10T12:59:45;5.22;;;3.90;;
10517;SDS011;5307;42.548;22.968;2023-06-10T13:02:17;4.63;;;4.10;;
10517;SDS011;5307;42.548;22.968;2023-06-10T13:04:45;7.72;;;3.83;;
10517;SDS011;5307;42.548;22.968;2023-06-10T13:07:13;8.82;;;4.72;;
10517;SDS011;5307;42.548;22.968;2023-06-10T13:09:40;8.15;;;3.92;;
10517;SDS011;5307;42.548;22.968;2023-06-10T13:12:07;4.72;;;3.78;;
10517;SDS011;5307;42.548;22.968;2023-06-10T13:14:35;6.25;;;4.00;;
10517;SDS011;5307;42.548;22.968;2023-06-10T13:17:04;17.65;;;4.53;;
10517;SDS011;5307;42.548;22.968;2023-06-10T13:19:31;7.80;;;4.20;;
10517;SDS011;5307;42.548;22.968;2023-06-10T13:21:59;13.45;;;5.30;;
10517;SDS011;5307;42.548;22.968;2023-06-10T13:24:26;11.82;;;4.68;;
10517;SDS011;5307;42.548;22.968;2023-06-10T13:26:53;499.52;;;27.30;;
10517;SDS011;5307;42.548;22.968;2023-06-10T13:29:20;6.28;;;3.85;;
10517;SDS011;5307;42.548;22.968;2023-06-10T13:31:47;8.93;;;5.10;;
10517;SDS011;5307;42.548;22.968;2023-06-10T13:34:15;7.10;;;3.50;;
10517;SDS011;5307;42.548;22.968;2023-06-10T13:36:42;15.23;;;4.45;;
10517;SDS011;5307;42.548;22.968;2023-06-10T13:39:08;6.25;;;2.78;;
10517;SDS011;5307;42.548;22.968;2023-06-10T13:41:39;3.53;;;2.90;;
10517;SDS011;5307;42.548;22.968;2023-06-10T13:44:06;73.88;;;6.38;;
10517;SDS011;5307;42.548;22.968;2023-06-10T13:46:33;4.18;;;3.15;;
10517;SDS011;5307;42.548;22.968;2023-06-10T13:49:00;6.50;;;3.83;;
10517;SDS011;5307;42.548;22.968;2023-06-10T13:51:28;5.50;;;3.97;;
10517;SDS011;5307;42.548;22.968;2023-06-10T13:53:55;7.75;;;4.13;;
10517;SDS011;5307;42.548;22.968;2023-06-10T13:56:22;5.80;;;4.07;;
10517;SDS011;5307;42.548;22.968;2023-06-10T13:58:49;4.53;;;4.03;;
10517;SDS011;5307;42.548;22.968;2023-06-10T14:01:15;6.28;;;4.72;;
10517;SDS011;5307;42.548;22.968;2023-06-10T14:03:42;5.70;;;3.80;;
10517;SDS011;5307;42.548;22.968;2023-06-10T14:06:09;4.50;;;3.63;;
10517;SDS011;5307;42.548;22.968;2023-06-10T14:08:39;4.65;;;3.75;;
10517;SDS011;5307;42.548;22.968;2023-06-10T14:11:06;5.35;;;3.85;;
10517;SDS011;5307;42.548;22.968;2023-06-10T14:13:33;8.38;;;5.13;;
10517;SDS011;5307;42.548;22.968;2023-06-10T14:16:00;7.30;;;4.03;;
10517;SDS011;5307;42.548;22.968;2023-06-10T14:18:28;8.20;;;5.00;;
10517;SDS011;5307;42.548;22.968;2023-06-10T14:20:56;7.60;;;4.95;;
10517;SDS011;5307;42.548;22.968;2023-06-10T14:23:23;6.13;;;4.18;;
10517;SDS011;5307;42.548;22.968;2023-06-10T14:25:52;18.08;;;8.05;;
10517;SDS011;5307;42.548;22.968;2023-06-10T14:28:19;9.68;;;6.30;;
10517;SDS011;5307;42.548;22.968;2023-06-10T14:30:46;4.32;;;3.50;;
10517;SDS011;5307;42.548;22.968;2023-06-10T14:33:13;5.57;;;4.28;;
10517;SDS011;5307;42.548;22.968;2023-06-10T14:35:39;7.03;;;4.60;;
10517;SDS011;5307;42.548;22.968;2023-06-10T14:38:08;11.23;;;5.60;;
10517;SDS011;5307;42.548;22.968;2023-06-10T14:40:35;4.78;;;4.07;;
10517;SDS011;5307;42.548;22.968;2023-06-10T14:43:03;5.53;;;3.92;;
10517;SDS011;5307;42.548;22.968;2023-06-10T14:45:34;8.43;;;4.55;;
10517;SDS011;5307;42.548;22.968;2023-06-10T14:48:02;5.07;;;4.10;;
10517;SDS011;5307;42.548;22.968;2023-06-10T14:50:28;4.18;;;3.72;;
10517;SDS011;5307;42.548;22.968;2023-06-10T14:52:55;5.72;;;4.15;;
10517;SDS011;5307;42.548;22.968;2023-06-10T14:55:22;7.25;;;4.25;;
10517;SDS011;5307;42.548;22.968;2023-06-10T14:57:49;5.97;;;3.92;;
10517;SDS011;5307;42.548;22.968;2023-06-10T15:00:17;5.13;;;4.47;;
10517;SDS011;5307;42.548;22.968;2023-06-10T15:02:47;5.15;;;3.53;;
10517;SDS011;5307;42.548;22.968;2023-06-10T15:05:14;6.00;;;3.40;;
10517;SDS011;5307;42.548;22.968;2023-06-10T15:07:42;5.03;;;4.05;;
10517;SDS011;5307;42.548;22.968;2023-06-10T15:10:09;5.80;;;4.18;;
10517;SDS011;5307;42.548;22.968;2023-06-10T15:12:36;6.35;;;4.00;;
10517;SDS011;5307;42.548;22.968;2023-06-10T15:15:03;6.05;;;4.80;;
10517;SDS011;5307;42.548;22.968;2023-06-10T15:17:32;5.22;;;3.78;;
10517;SDS011;5307;42.548;22.968;2023-06-10T15:19:59;5.13;;;3.63;;
10517;SDS011;5307;42.548;22.968;2023-06-10T15:22:26;4.03;;;3.63;;
10517;SDS011;5307;42.548;22.968;2023-06-10T15:24:53;4.85;;;3.75;;
10517;SDS011;5307;42.548;22.968;2023-06-10T15:27:20;10.10;;;4.55;;
10517;SDS011;5307;42.548;22.968;2023-06-10T15:29:47;7.40;;;4.30;;